Time;durP1;ratioP1;P1;durP2;ratioP2;P2;SDS_P1;SDS_P2;PMS_P1;PMS_P2;Temp;Humidity;BMP_temperature;BMP_pressure;BME280_temperature;BME280_humidity;BME280_pressure;Samples;Min_cycle;Max_cycle;Signal;HPM_P1;HPM_P2
2023/03/24 00:01:48;;;;;;;14.07;13.07;;;;;;;11.95;72.50;97365.34;5054345;28;20390;-73
2023/03/24 00:04:14;;;;;;;14.00;12.80;;;;;;;12.04;71.47;97377.19;5042105;28;20025;-72
2023/03/24 00:06:39;;;;;;;13.50;12.48;;;;;;;12.06;71.52;97372.34;5032487;28;20047;-73
2023/03/24 00:09:05;;;;;;;13.20;12.20;;;;;;;12.04;71.76;97366.41;5034821;28;20040;-72
2023/03/24 00:11:33;;;;;;;11.40;10.70;;;;;;;12.05;71.55;97362.63;5031410;28;20041;-72
2023/03/24 00:13:59;;;;;;;12.23;11.23;;;;;;;11.96;71.73;97358.88;5008773;28;20128;-73
2023/03/24 00:16:25;;;;;;;11.70;10.82;;;;;;;12.03;71.27;97362.09;5029190;28;20037;-73
2023/03/24 00:18:51;;;;;;;10.88;10.00;;;;;;;12.05;70.95;97362.63;5029503;28;20116;-73
2023/03/24 00:21:20;;;;;;;11.75;10.68;;;;;;;12.03;71.39;97358.59;5036311;28;20029;-73
2023/03/24 00:23:48;;;;;;;11.10;10.02;;;;;;;12.04;70.83;97358.31;5033282;28;20054;-73
2023/03/24 00:26:14;;;;;;;10.75;10.02;;;;;;;11.99;71.46;97352.94;5048314;28;20039;-73
2023/03/24 00:28:47;;;;;;;10.35;9.38;;;;;;;12.08;70.89;97353.19;5043335;28;20124;-74
2023/03/24 00:31:14;;;;;;;10.02;9.23;;;;;;;12.09;70.84;97355.59;5021131;28;20465;-73
2023/03/24 00:33:41;;;;;;;9.30;8.60;;;;;;;12.19;70.81;97354.75;5060657;28;20482;-73
2023/03/24 00:36:10;;;;;;;9.32;8.38;;;;;;;12.15;70.29;97357.22;5037467;28;20029;-74
2023/03/24 00:38:37;;;;;;;9.57;8.77;;;;;;;12.15;70.85;97362.59;5040024;28;20067;-74
2023/03/24 00:41:04;;;;;;;11.25;10.23;;;;;;;12.13;71.33;97361.25;5050678;28;20044;-73
2023/03/24 00:43:30;;;;;;;14.98;9.38;;;;;;;12.16;70.80;97358.81;5025887;28;20389;-73
2023/03/24 00:46:00;;;;;;;10.30;9.38;;;;;;;12.18;71.15;97356.63;5051803;28;20021;-73
2023/03/24 00:48:27;;;;;;;10.55;9.80;;;;;;;12.22;70.73;97352.31;5066718;28;20033;-73
2023/03/24 00:50:52;;;;;;;10.73;9.73;;;;;;;12.19;70.56;97342.06;5037233;28;20036;-73
2023/03/24 00:53:18;;;;;;;10.80;10.00;;;;;;;12.19;70.81;97335.84;5036987;28;20032;-73
2023/03/24 00:55:46;;;;;;;11.45;10.65;;;;;;;12.20;71.95;97341.00;5053752;28;20024;-73
2023/03/24 00:58:18;;;;;;;12.88;12.00;;;;;;;12.18;71.89;97321.53;5053674;28;20036;-74
2023/03/24 01:00:49;;;;;;;11.45;10.48;;;;;;;12.23;71.30;97321.53;5053922;28;20032;-74
2023/03/24 01:03:16;;;;;;;10.00;9.32;;;;;;;12.29;70.95;97319.63;5053450;28;20107;-74
2023/03/24 01:05:47;;;;;;;12.18;11.25;;;;;;;12.19;71.37;97325.88;5037076;28;20028;-72
2023/03/24 01:08:19;;;;;;;13.32;12.15;;;;;;;12.18;71.79;97337.75;5068981;22;20033;-74
2023/03/24 01:10:51;;;;;;;13.85;12.85;;;;;;;12.10;72.42;97335.63;5059731;28;20031;-74
2023/03/24 01:13:21;;;;;;;15.18;14.07;;;;;;;12.06;72.83;97331.06;5062988;28;20111;-74
2023/03/24 01:15:46;;;;;;;16.85;15.65;;;;;;;12.02;73.35;97330.00;5069681;28;20030;-76
2023/03/24 01:18:13;;;;;;;18.65;17.58;;;;;;;12.08;73.68;97324.31;5070237;28;20024;-75
2023/03/24 01:20:39;;;;;;;19.48;18.17;;;;;;;12.04;73.74;97328.63;5066805;28;20016;-75
2023/03/24 01:23:06;;;;;;;19.05;17.85;;;;;;;12.06;73.70;97323.78;5059294;28;20041;-76
2023/03/24 01:25:34;;;;;;;19.88;18.75;;;;;;;12.06;73.80;97321.06;5050175;28;20028;-77
2023/03/24 01:28:00;;;;;;;20.15;18.92;;;;;;;12.00;73.93;97322.16;5066881;28;20036;-77
2023/03/24 01:30:27;;;;;;;23.05;21.67;;;;;;;12.07;74.34;97321.88;5050141;28;20024;-77
2023/03/24 01:32:53;;;;;;;23.65;22.38;;;;;;;11.95;74.79;97313.28;5077230;28;20055;-76
2023/03/24 01:35:20;;;;;;;26.38;24.88;;;;;;;11.99;74.65;97309.78;5042560;28;20016;-75
2023/03/24 01:37:46;;;;;;;26.40;25.10;;;;;;;11.97;74.98;97311.91;5048654;28;20036;-76
2023/03/24 01:40:27;;;;;;;33.40;31.70;;;;;;;11.88;75.60;97313.56;5073547;28;20370;-76
2023/03/24 01:42:52;;;;;;;35.53;33.63;;;;;;;11.83;76.56;97308.19;5063172;28;20047;-76
2023/03/24 01:45:40;;;;;;;38.67;36.55;;;;;;;11.82;77.07;97298.47;5078060;28;20028;-75
2023/03/24 01:48:12;;;;;;;41.72;39.78;;;;;;;11.68;77.92;97292.03;5078981;28;20037;-75
2023/03/24 01:50:37;;;;;;;45.35;43.05;;;;;;;11.69;77.47;97282.88;5060455;28;20033;-76
2023/03/24 01:53:04;;;;;;;41.25;38.97;;;;;;;11.70;77.14;97276.38;5070115;28;20044;-76
2023/03/24 01:55:30;;;;;;;45.03;42.92;;;;;;;11.71;77.63;97280.72;5040883;28;20050;-74
2023/03/24 01:57:58;;;;;;;44.72;42.42;;;;;;;11.67;77.92;97271.50;5057120;28;20466;-76
2023/03/24 02:00:30;;;;;;;42.05;39.92;;;;;;;11.77;77.41;97268.81;5032384;28;20029;-77
2023/03/24 02:03:37;;;;;;;45.10;42.88;;;;;;;11.74;77.41;97274.75;5057567;28;20047;-76
2023/03/24 02:06:04;;;;;;;43.55;41.30;;;;;;;11.69;77.73;97264.78;5056807;28;20028;-78
2023/03/24 02:08:36;;;;;;;42.85;40.75;;;;;;;11.74;77.75;97255.88;5080123;28;20025;-77
2023/03/24 02:11:02;;;;;;;41.83;39.55;;;;;;;11.70;77.19;97247.53;5060875;28;20111;-78
2023/03/24 02:13:36;;;;;;;39.08;37.20;;;;;;;11.78;77.27;97246.16;5050631;28;20024;-78
2023/03/24 02:16:18;;;;;;;40.25;38.15;;;;;;;11.83;76.87;97232.66;5071462;28;20404;-77
2023/03/24 02:19:11;;;;;;;38.13;36.33;;;;;;;11.80;77.04;97227.81;5065997;28;20032;-76
2023/03/24 02:21:55;;;;;;;39.20;37.30;;;;;;;11.84;76.29;97225.34;5056910;28;20074;-77
2023/03/24 02:24:57;;;;;;;35.55;33.85;;;;;;;11.92;75.87;97219.41;5047371;28;20029;-77
2023/03/24 02:27:38;;;;;;;34.70;33.00;;;;;;;11.90;76.03;97224.25;5048728;28;20085;-77
2023/03/24 02:30:14;;;;;;;32.63;30.75;;;;;;;11.85;75.70;97216.19;5056474;28;20175;-77
2023/03/24 02:32:54;;;;;;;;;;;;;;;11.87;75.26;97204.03;5057906;28;20041;-76
2023/03/24 02:35:34;;;;;;;27.98;26.58;;;;;;;11.93;74.75;97202.91;5072872;28;19998;-76
2023/03/24 02:38:06;;;;;;;28.83;27.33;;;;;;;11.88;75.23;97200.25;5058964;28;20033;-76
2023/03/24 02:41:02;;;;;;;27.77;26.27;;;;;;;11.89;75.11;97209.16;5059300;28;20036;-75
2023/03/24 02:43:57;;;;;;;28.38;26.88;;;;;;;11.85;75.38;97205.41;5070283;28;20504;-76
2023/03/24 02:46:37;;;;;;;27.67;26.08;;;;;;;11.81;75.25;97188.94;5052766;28;20040;-75
2023/03/24 02:49:18;;;;;;;29.40;27.90;;;;;;;11.84;75.30;97191.09;5034532;28;20040;-76
2023/03/24 02:52:15;;;;;;;27.80;26.33;;;;;;;11.75;75.42;97177.38;5045422;28;20124;-75
2023/03/24 02:54:47;;;;;;;30.05;28.55;;;;;;;11.77;75.47;97160.91;5055997;28;20025;-76
2023/03/24 02:57:41;;;;;;;29.77;28.08;;;;;;;11.79;75.53;97169.53;5064712;28;20028;-75
2023/03/24 03:00:31;;;;;;;30.08;28.58;;;;;;;11.76;75.05;97167.41;5052996;28;20412;-74
2023/03/24 03:03:08;;;;;;;30.35;28.75;;;;;;;11.73;75.85;97165.25;5047942;28;20036;-74
2023/03/24 03:05:38;;;;;;;31.85;30.05;;;;;;;11.74;75.72;97166.84;5046978;28;20374;-74
2023/03/24 03:08:06;;;;;;;32.90;31.20;;;;;;;11.71;75.71;97162.03;5049083;28;20032;-74
2023/03/24 03:10:36;;;;;;;31.38;29.67;;;;;;;11.74;76.02;97156.06;5062518;28;20059;-75
2023/03/24 03:13:08;;;;;;;33.65;32.05;;;;;;;11.74;75.81;97151.47;5068635;28;20028;-76
2023/03/24 03:15:39;;;;;;;34.63;32.67;;;;;;;11.74;76.18;97156.88;5067039;28;20059;-75
2023/03/24 03:18:10;;;;;;;34.70;33.00;;;;;;;11.73;76.42;97154.47;5053199;28;20448;-75
2023/03/24 03:20:49;;;;;;;31.55;29.90;;;;;;;11.70;75.85;97133.44;5068669;28;20035;-75
2023/03/24 03:23:17;;;;;;;30.67;29.17;;;;;;;11.77;75.85;97142.84;5052415;28;20456;-75
2023/03/24 03:25:49;;;;;;;32.13;30.42;;;;;;;11.79;75.49;97143.38;5035722;28;20123;-75
2023/03/24 03:28:16;;;;;;;33.65;31.88;;;;;;;11.77;76.28;97142.03;5038586;28;20416;-75
2023/03/24 03:30:50;;;;;;;32.22;30.52;;;;;;;11.77;75.95;97133.94;5051955;28;20032;-75
2023/03/24 03:33:24;;;;;;;32.08;30.48;;;;;;;11.75;76.26;97130.72;5049437;28;20068;-74
2023/03/24 03:36:13;;;;;;;34.53;32.60;;;;;;;11.68;76.34;97130.22;5040322;28;20028;-75
2023/03/24 03:38:53;;;;;;;35.28;33.38;;;;;;;11.72;76.26;97139.34;5050304;28;20024;-75
2023/03/24 03:41:19;;;;;;;35.58;33.78;;;;;;;11.76;76.26;97135.03;5064508;28;20128;-75
2023/03/24 03:43:47;;;;;;;36.40;34.50;;;;;;;11.74;76.80;97134.50;5044826;28;20028;-75
2023/03/24 03:46:14;;;;;;;33.03;31.23;;;;;;;11.84;75.64;97125.53;5048660;28;20150;-75
2023/03/24 03:48:39;;;;;;;32.45;30.58;;;;;;;11.79;76.16;97121.78;5067968;28;20025;-74
2023/03/24 03:51:05;;;;;;;33.65;31.95;;;;;;;11.77;76.49;97128.53;5073106;28;20059;-75
2023/03/24 03:53:52;;;;;;;33.50;31.70;;;;;;;11.84;75.79;97130.94;5055494;28;20059;-75
2023/03/24 03:56:18;;;;;;;;;;;;;;;11.85;75.92;97125.28;5056002;28;20025;-75
2023/03/24 03:58:54;;;;;;;30.77;29.23;;;;;;;11.81;75.89;97118.03;5055177;28;19912;-75
2023/03/24 04:01:24;;;;;;;33.42;31.73;;;;;;;11.81;76.04;97129.59;5068654;28;20036;-75
2023/03/24 04:04:24;;;;;;;31.70;30.08;;;;;;;11.89;75.56;97126.31;5057067;28;20027;-74
2023/03/24 04:07:23;;;;;;;30.65;29.05;;;;;;;11.90;75.64;97137.94;5077245;28;20036;-74
2023/03/24 04:10:22;;;;;;;29.08;27.48;;;;;;;11.93;75.19;97130.06;5076040;28;20036;-74
2023/03/24 04:13:20;;;;;;;29.15;27.45;;;;;;;11.89;75.42;97126.31;5072575;28;20603;-78
2023/03/24 04:16:16;;;;;;;29.95;28.00;;;;;;;11.93;75.72;97137.34;5079050;28;20067;-78
2023/03/24 04:19:20;;;;;;;31.75;29.95;;;;;;;11.93;75.62;97138.16;5063643;28;20552;-80
2023/03/24 04:21:52;;;;;;;29.90;28.20;;;;;;;11.92;75.91;97131.19;5069262;28;20036;-77
2023/03/24 04:24:41;;;;;;;28.88;27.42;;;;;;;11.88;76.16;97132.00;5063579;28;20032;-79
2023/03/24 04:27:45;;;;;;;30.85;29.15;;;;;;;11.86;76.16;97143.06;5048986;28;20111;-77
2023/03/24 04:30:31;;;;;;;30.77;29.08;;;;;;;11.89;75.72;97137.13;5072141;28;20036;-78
2023/03/24 04:32:59;;;;;;;29.00;27.35;;;;;;;11.91;75.43;97129.56;5040591;28;20110;-77
2023/03/24 04:35:35;;;;;;;28.80;27.33;;;;;;;11.91;75.78;97134.94;5051467;28;20080;-77
2023/03/24 04:38:27;;;;;;;29.63;28.02;;;;;;;11.85;75.87;97119.88;5055155;28;20045;-77
2023/03/24 04:41:11;;;;;;;28.25;26.73;;;;;;;11.88;75.34;97124.69;5045560;28;20032;-77
2023/03/24 04:43:38;;;;;;;28.15;26.70;;;;;;;11.91;75.26;97121.44;5049732;28;20037;-76
2023/03/24 04:46:08;;;;;;;28.45;26.63;;;;;;;11.95;74.84;97108.22;5053363;28;20516;-77
2023/03/24 04:49:01;;;;;;;28.52;27.02;;;;;;;11.94;74.48;97096.63;5073836;28;20052;-77
2023/03/24 04:51:31;;;;;;;26.70;25.30;;;;;;;11.95;74.98;97098.22;5058626;28;20558;-75
2023/03/24 04:54:05;;;;;;;25.70;24.30;;;;;;;11.98;74.60;97111.16;5045747;28;20044;-75
2023/03/24 04:56:40;;;;;;;27.42;25.92;;;;;;;11.96;75.12;97099.84;5074686;28;20075;-75
2023/03/24 04:59:15;;;;;;;26.33;24.92;;;;;;;12.03;74.51;97104.91;5050496;28;20552;-75
2023/03/24 05:01:48;;;;;;;27.92;26.02;;;;;;;12.03;74.56;97094.13;5055764;28;20078;-77
2023/03/24 05:04:29;;;;;;;24.08;22.58;;;;;;;12.01;74.29;97091.72;5048132;28;20418;-76
2023/03/24 05:07:00;;;;;;;23.27;21.88;;;;;;;12.07;74.13;97095.97;5075991;28;20074;-77
2023/03/24 05:09:26;;;;;;;25.15;23.55;;;;;;;12.03;74.12;97097.63;5057970;28;20115;-76
2023/03/24 05:11:51;;;;;;;22.10;20.60;;;;;;;12.08;74.02;97091.41;5051105;28;20121;-76
2023/03/24 05:14:18;;;;;;;21.70;20.33;;;;;;;12.06;73.84;97099.78;5052284;28;20035;-76
2023/03/24 05:16:43;;;;;;;22.38;21.10;;;;;;;12.05;74.07;97092.75;5050912;28;20039;-76
2023/03/24 05:19:15;;;;;;;20.13;18.88;;;;;;;12.12;73.79;97079.75;5070547;28;20025;-76
2023/03/24 05:21:42;;;;;;;19.63;18.52;;;;;;;12.13;74.18;97083.28;5064894;28;20409;-77
2023/03/24 05:24:07;;;;;;;19.52;18.23;;;;;;;12.17;73.47;97084.31;5067185;28;20025;-77
2023/03/24 05:26:34;;;;;;;20.40;18.90;;;;;;;12.12;74.15;97082.47;5058894;28;20493;-77
2023/03/24 05:29:19;;;;;;;20.27;19.08;;;;;;;12.10;73.79;97095.44;5047636;28;20074;-78
2023/03/24 05:31:44;;;;;;;18.98;17.88;;;;;;;12.12;73.61;97097.84;5041699;28;20040;-76
2023/03/24 05:34:15;;;;;;;20.10;18.85;;;;;;;12.12;73.48;97104.06;5057922;28;20504;-74
2023/03/24 05:36:49;;;;;;;21.83;20.42;;;;;;;12.03;74.04;97100.34;5071401;28;20034;-76
2023/03/24 05:39:18;;;;;;;22.27;20.80;;;;;;;12.05;74.28;97098.16;5077754;28;20028;-77
2023/03/24 05:41:51;;;;;;;19.80;18.60;;;;;;;12.10;73.72;97100.81;5058851;28;20052;-77
2023/03/24 05:44:16;;;;;;;21.95;20.50;;;;;;;12.06;73.92;97115.97;5053773;28;20071;-77
2023/03/24 05:46:51;;;;;;;20.42;19.17;;;;;;;12.10;74.03;97105.41;5070993;28;20016;-75
2023/03/24 05:49:16;;;;;;;20.67;19.35;;;;;;;12.08;73.73;97102.19;5065012;28;20032;-77
2023/03/24 05:51:41;;;;;;;22.08;20.73;;;;;;;12.08;73.94;97113.00;5079699;28;20466;-74
2023/03/24 05:54:07;;;;;;;22.40;21.00;;;;;;;12.00;74.38;97116.25;5065345;28;20032;-75
2023/03/24 05:56:36;;;;;;;21.20;19.73;;;;;;;12.08;74.09;97118.38;5048019;28;20170;-76
2023/03/24 05:59:28;;;;;;;22.42;20.90;;;;;;;12.07;74.37;97128.38;5052074;28;20029;-75
2023/03/24 06:02:12;;;;;;;23.88;22.38;;;;;;;12.09;73.72;97128.88;5067518;28;20554;-75
2023/03/24 06:04:47;;;;;;;21.60;20.20;;;;;;;12.07;73.78;97133.75;5047593;28;20094;-75
2023/03/24 06:07:16;;;;;;;21.95;20.40;;;;;;;12.06;73.71;97134.88;5051855;28;20029;-76
2023/03/24 06:09:49;;;;;;;21.88;20.38;;;;;;;12.04;73.87;97144.31;5040713;28;20033;-76
2023/03/24 06:12:15;;;;;;;23.42;21.73;;;;;;;12.01;73.76;97151.09;5068093;28;20687;-74
2023/03/24 06:14:50;;;;;;;24.00;22.33;;;;;;;12.06;73.82;97159.16;5044173;28;20032;-74
2023/03/24 06:17:16;;;;;;;23.67;21.95;;;;;;;12.09;73.67;97163.97;5048305;28;20071;-76
2023/03/24 06:19:48;;;;;;;20.83;19.45;;;;;;;12.14;73.55;97161.25;5069956;28;20027;-74
2023/03/24 06:22:32;;;;;;;21.33;19.92;;;;;;;12.17;73.34;97166.09;5059914;28;20122;-76
2023/03/24 06:24:59;;;;;;;20.95;19.60;;;;;;;12.18;73.04;97178.50;5065261;28;20054;-75
2023/03/24 06:27:29;;;;;;;20.98;19.65;;;;;;;12.10;73.46;97176.41;5046333;28;20036;-76
2023/03/24 06:29:58;;;;;;;22.10;20.58;;;;;;;12.12;73.84;97174.22;5076449;28;20426;-74
2023/03/24 06:32:24;;;;;;;26.08;24.38;;;;;;;12.11;74.28;97180.69;5056540;28;20074;-74
2023/03/24 06:34:50;;;;;;;23.27;21.88;;;;;;;12.14;73.48;97177.44;5065857;28;20493;-74
2023/03/24 06:37:32;;;;;;;22.27;20.77;;;;;;;12.22;73.31;97184.97;5065289;28;20044;-74
2023/03/24 06:40:00;;;;;;;24.80;23.00;;;;;;;12.19;73.07;97184.69;5047769;28;20119;-74
2023/03/24 06:42:29;;;;;;;18.17;16.98;;;;;;;12.19;72.61;97192.78;5069765;28;20020;-74
2023/03/24 06:44:54;;;;;;;19.73;18.63;;;;;;;12.17;74.40;97197.66;5056193;28;20047;-74
2023/03/24 06:47:20;;;;;;;16.63;15.63;;;;;;;12.40;72.94;97208.59;5058885;28;20473;-74
2023/03/24 06:49:45;;;;;;;26.60;25.27;;;;;;;12.22;74.91;97211.16;5075877;28;20105;-73
2023/03/24 06:52:11;;;;;;;26.23;24.92;;;;;;;12.35;74.54;97219.44;5056054;28;20115;-74
2023/03/24 06:54:39;;;;;;;28.90;27.50;;;;;;;12.39;75.49;97227.78;5055954;28;20036;-74
2023/03/24 06:57:05;;;;;;;307.73;247.43;;;;;;;12.37;75.73;97209.16;5072755;28;20371;-74
2023/03/24 07:08:34;;;;;;;52.75;50.05;;;;;;;12.24;78.56;97258.38;4983510;28;20073;-76
2023/03/24 07:14:40;;;;;;;52.35;49.70;;;;;;;11.97;79.53;97230.94;5068037;28;20040;-74
2023/03/24 07:17:57;;;;;;;47.67;45.38;;;;;;;11.94;79.55;97214.53;5059231;28;20028;-75
2023/03/24 07:21:35;;;;;;;49.80;47.50;;;;;;;12.18;79.53;97256.78;5066053;28;20222;-74
2023/03/24 07:25:03;;;;;;;52.20;49.80;;;;;;;11.95;81.34;97248.53;4969364;28;20041;-74
2023/03/24 07:28:07;;;;;;;56.28;53.55;;;;;;;11.90;81.90;97243.97;4993521;28;20686;-74
2023/03/24 07:30:59;;;;;;;55.10;52.50;;;;;;;11.73;81.65;97214.63;5053355;28;20052;-73
2023/03/24 07:34:01;;;;;;;55.13;52.42;;;;;;;11.67;81.94;97209.47;5048395;28;20047;-74
2023/03/24 07:37:02;;;;;;;55.85;53.20;;;;;;;11.85;81.75;97190.03;5033429;28;20068;-75
2023/03/24 07:39:33;;;;;;;56.85;54.05;;;;;;;12.00;82.63;97222.31;5059241;22;20057;-76
2023/03/24 07:41:59;;;;;;;58.38;55.60;;;;;;;11.96;82.57;97223.97;5061764;28;20490;-75
2023/03/24 07:44:35;;;;;;;56.70;53.90;;;;;;;11.97;83.13;97217.47;5045380;28;20498;-74
2023/03/24 07:47:00;;;;;;;58.88;55.97;;;;;;;11.94;83.58;97236.94;5080857;28;20042;-75
2023/03/24 07:49:26;;;;;;;56.85;53.92;;;;;;;12.04;82.53;97236.84;5071440;28;20024;-75
2023/03/24 07:52:07;;;;;;;58.25;55.33;;;;;;;11.82;84.77;97243.72;5054867;28;20079;-76
2023/03/24 07:54:38;;;;;;;59.15;56.15;;;;;;;11.96;84.01;97240.16;5055343;28;20167;-75
2023/03/24 07:57:03;;;;;;;56.65;53.85;;;;;;;11.95;83.75;97243.13;5030636;28;20440;-75
2023/03/24 07:59:29;;;;;;;55.33;52.38;;;;;;;11.97;83.71;97249.06;5023127;28;20492;-75
2023/03/24 08:02:16;;;;;;;55.80;52.90;;;;;;;12.04;84.00;97253.06;5042722;28;20246;-76
2023/03/24 08:05:04;;;;;;;54.85;52.15;;;;;;;12.04;83.80;97242.25;5012842;28;20248;-75
2023/03/24 08:07:54;;;;;;;55.30;52.50;;;;;;;11.84;84.95;97239.66;5039954;28;20037;-76
2023/03/24 08:10:22;;;;;;;53.60;50.83;;;;;;;11.98;83.97;97237.97;5038460;28;20397;-75
2023/03/24 08:12:48;;;;;;;54.53;51.80;;;;;;;11.89;84.18;97238.81;5051673;28;20021;-75
2023/03/24 08:15:13;;;;;;;52.67;50.08;;;;;;;11.93;84.01;97235.31;5028341;28;20033;-75
2023/03/24 08:17:39;;;;;;;50.97;48.58;;;;;;;11.88;83.87;97237.22;5052334;28;20024;-75
2023/03/24 08:20:08;;;;;;;52.90;50.40;;;;;;;11.97;83.98;97236.34;5054068;28;20492;-75
2023/03/24 08:22:34;;;;;;;53.42;50.83;;;;;;;12.12;83.99;97232.78;5032886;28;20429;-75
2023/03/24 08:24:59;;;;;;;52.45;49.92;;;;;;;12.04;83.69;97242.25;5053906;28;20033;-75
2023/03/24 08:27:25;;;;;;;53.05;50.45;;;;;;;12.23;83.19;97243.25;5037479;28;20367;-75
2023/03/24 08:29:50;;;;;;;51.70;49.25;;;;;;;12.21;82.96;97229.22;5037460;28;20170;-75
2023/03/24 08:32:15;;;;;;;52.75;50.30;;;;;;;12.36;82.89;97233.75;5072296;28;20032;-75
2023/03/24 08:34:41;;;;;;;53.97;51.47;;;;;;;12.25;83.67;97238.38;5038370;28;20044;-75
2023/03/24 08:37:07;;;;;;;54.33;51.75;;;;;;;12.43;83.68;97250.44;5037474;28;20031;-75
2023/03/24 08:39:34;;;;;;;51.95;49.53;;;;;;;12.44;82.74;97250.16;5037308;28;20036;-75
2023/03/24 08:42:00;;;;;;;50.90;48.50;;;;;;;12.32;81.68;97230.78;5037506;28;20028;-76
2023/03/24 08:44:25;;;;;;;52.22;49.83;;;;;;;12.36;82.59;97239.13;5071387;28;20028;-75
2023/03/24 08:46:51;;;;;;;51.92;49.58;;;;;;;12.55;82.32;97247.41;5037090;28;20097;-75
2023/03/24 08:49:16;;;;;;;51.55;49.15;;;;;;;12.61;82.63;97252.47;5028598;28;20123;-75
2023/03/24 08:51:42;;;;;;;51.15;48.85;;;;;;;12.53;81.55;97245.00;5037825;28;20064;-75
2023/03/24 08:54:08;;;;;;;51.10;48.80;;;;;;;12.86;81.79;97252.28;5037222;28;20115;-76
2023/03/24 08:56:33;;;;;;;52.50;49.95;;;;;;;12.91;81.73;97246.84;5071168;28;20112;-75
2023/03/24 08:58:59;;;;;;;52.13;49.70;;;;;;;12.89;80.96;97253.63;5018258;28;20025;-75
2023/03/24 09:01:24;;;;;;;49.90;47.53;;;;;;;12.67;81.02;97250.56;5030911;28;20020;-75
2023/03/24 09:03:51;;;;;;;50.10;47.90;;;;;;;12.75;80.75;97258.88;5053196;28;20569;-75
2023/03/24 09:06:17;;;;;;;52.75;50.35;;;;;;;12.93;80.36;97254.66;5053837;28;20525;-75
2023/03/24 09:08:42;;;;;;;52.20;49.78;;;;;;;13.15;80.38;97242.38;5071515;28;20132;-75
2023/03/24 09:11:15;;;;;;;50.00;47.80;;;;;;;12.95;80.66;97236.31;5071759;28;20031;-75
2023/03/24 09:13:40;;;;;;;51.75;49.40;;;;;;;13.13;79.86;97243.75;5053692;28;20512;-74
2023/03/24 09:16:05;;;;;;;50.70;48.10;;;;;;;13.18;79.21;97251.81;5034727;28;20056;-74
2023/03/24 09:18:31;;;;;;;48.75;46.45;;;;;;;13.43;78.91;97238.06;5026125;28;20063;-75
2023/03/24 09:20:56;;;;;;;48.17;46.05;;;;;;;13.70;78.03;97235.59;5058031;28;20032;-76
2023/03/24 09:23:22;;;;;;;45.90;43.90;;;;;;;13.71;78.13;97229.09;5062322;28;20040;-77
2023/03/24 09:25:50;;;;;;;43.03;41.13;;;;;;;13.78;78.17;97240.38;5051884;28;20405;-76
2023/03/24 09:28:15;;;;;;;44.15;42.15;;;;;;;13.68;77.18;97224.25;5051502;28;20506;-76
2023/03/24 09:30:42;;;;;;;42.97;40.97;;;;;;;13.80;77.35;97227.34;5051426;28;20108;-76
2023/03/24 09:33:07;;;;;;;51.63;48.83;;;;;;;13.88;78.04;97212.41;5051385;28;20033;-76
2023/03/24 09:35:33;;;;;;;44.22;42.28;;;;;;;13.93;77.70;97222.34;5034910;28;20054;-76
2023/03/24 09:37:58;;;;;;;47.08;45.00;;;;;;;13.74;78.75;97225.81;5051738;28;20032;-76
2023/03/24 09:40:26;;;;;;;42.03;40.22;;;;;;;13.52;77.75;97225.50;5052522;28;20035;-76
2023/03/24 09:43:11;;;;;;;44.80;42.80;;;;;;;13.31;78.76;97232.22;5036641;28;20494;-76
2023/03/24 09:45:50;;;;;;;47.53;45.03;;;;;;;13.40;78.47;97240.50;5036550;28;20028;-76
2023/03/24 09:48:34;;;;;;;48.03;45.72;;;;;;;13.26;79.55;97239.56;5036442;28;20124;-76
2023/03/24 09:51:03;;;;;;;48.47;46.13;;;;;;;13.34;79.42;97239.75;5053334;28;20135;-76
2023/03/24 09:53:31;;;;;;;49.92;47.63;;;;;;;13.24;79.75;97229.03;5052915;28;20047;-76
2023/03/24 09:56:02;;;;;;;49.38;47.17;;;;;;;13.30;80.00;97216.28;5070954;28;20051;-76
2023/03/24 09:58:29;;;;;;;48.28;46.08;;;;;;;13.32;79.49;97224.91;5052975;28;20107;-76
2023/03/24 10:00:55;;;;;;;46.55;44.50;;;;;;;13.42;79.44;97214.78;5033334;28;20028;-76
2023/03/24 10:03:22;;;;;;;48.53;46.13;;;;;;;13.53;78.70;97216.31;5020676;28;20032;-76
2023/03/24 10:05:56;;;;;;;48.90;46.55;;;;;;;13.41;79.74;97240.25;5007505;28;20025;-74
2023/03/24 10:08:35;;;;;;;48.35;46.25;;;;;;;13.26;80.48;97239.56;5019051;28;20063;-76
2023/03/24 10:11:22;;;;;;;50.42;48.15;;;;;;;13.32;79.56;97220.31;5021408;28;20029;-76
2023/03/24 10:13:53;;;;;;;51.00;48.72;;;;;;;13.63;78.10;97220.78;5035701;28;20037;-76
2023/03/24 10:16:29;;;;;;;47.90;45.80;;;;;;;13.93;77.44;97230.47;5040263;28;20508;-76
2023/03/24 10:19:09;;;;;;;43.03;41.05;;;;;;;13.93;76.72;97220.47;5040057;28;20024;-76
2023/03/24 10:21:36;;;;;;;41.72;39.83;;;;;;;13.81;77.31;97237.09;5044300;28;20036;-76
2023/03/24 10:24:05;;;;;;;43.67;41.67;;;;;;;13.66;78.22;97253.50;5038897;28;20024;-76
2023/03/24 10:26:41;;;;;;;43.70;41.70;;;;;;;13.88;77.04;97234.81;5062483;28;20044;-76
2023/03/24 10:29:18;;;;;;;42.53;40.53;;;;;;;13.70;77.53;97232.88;5056484;28;20047;-76
2023/03/24 10:31:47;;;;;;;41.90;40.10;;;;;;;13.66;78.29;97231.03;5068534;28;20078;-76
2023/03/24 10:34:13;;;;;;;42.65;40.75;;;;;;;13.49;78.64;97225.28;5035274;28;20063;-76
2023/03/24 10:36:39;;;;;;;42.35;40.35;;;;;;;13.63;77.50;97221.59;5034511;28;20462;-76
2023/03/24 10:39:05;;;;;;;41.67;39.88;;;;;;;13.76;77.15;97225.53;5036765;28;20485;-76
2023/03/24 10:41:31;;;;;;;43.70;41.80;;;;;;;13.77;77.48;97227.94;5027220;28;20037;-76
2023/03/24 10:43:58;;;;;;;42.72;40.83;;;;;;;13.62;78.40;97236.22;5053882;28;20039;-76
2023/03/24 10:46:25;;;;;;;46.53;44.45;;;;;;;13.55;78.71;97241.19;5012868;28;20508;-76
2023/03/24 10:48:53;;;;;;;50.95;48.75;;;;;;;13.52;78.84;97235.50;5048873;28;20098;-76
2023/03/24 10:51:23;;;;;;;47.78;45.67;;;;;;;13.21;80.11;97229.59;5023189;28;20039;-76
2023/03/24 10:53:49;;;;;;;53.75;51.15;;;;;;;13.36;81.39;97231.34;5030564;28;20091;-76
2023/03/24 10:56:36;;;;;;;56.47;53.78;;;;;;;13.18;83.01;97232.88;5024362;28;20101;-76
2023/03/24 11:03:36;;;;;;;58.75;55.85;;;;;;;12.76;84.28;97211.88;4998054;28;20051;-76
2023/03/24 11:06:44;;;;;;;58.20;55.40;;;;;;;12.78;84.64;97227.78;4982519;28;20038;-76
2023/03/24 11:13:42;;;;;;;58.15;55.25;;;;;;;12.57;84.08;97208.22;5053683;28;20051;-77
2023/03/24 11:16:49;;;;;;;56.95;54.28;;;;;;;12.86;82.48;97205.56;4996844;28;20506;-76
2023/03/24 11:19:21;;;;;;;55.08;52.58;;;;;;;13.03;81.55;97222.16;5033769;28;20071;-75
2023/03/24 11:22:00;;;;;;;58.97;55.83;;;;;;;13.15;81.20;97214.53;5043868;28;20031;-76
2023/03/24 11:24:59;;;;;;;58.83;55.83;;;;;;;13.43;81.36;97235.34;5044026;28;20037;-77
2023/03/24 11:32:20;;;;;;;55.58;52.85;;;;;;;13.27;80.08;97198.72;5045775;28;20036;-76
2023/03/24 11:35:41;;;;;;;53.00;50.55;;;;;;;13.35;79.84;97184.56;5048116;28;20071;-76
2023/03/24 11:38:07;;;;;;;47.70;45.70;;;;;;;13.22;78.96;97185.25;5061324;28;20049;-76
2023/03/24 11:41:31;;;;;;;;;;;;;;;;;;;;;
2023/03/24 12:19:13;;;;;;;;;;;;;;;;;;;;;
2023/03/24 12:22:37;;;;;;;52.88;50.63;;;;;;;13.01;80.81;97159.47;5058644;28;20456;-77
2023/03/24 12:25:38;;;;;;;53.45;51.15;;;;;;;13.05;81.38;97174.88;5005763;28;20051;-77
2023/03/24 12:28:31;;;;;;;52.70;50.38;;;;;;;13.26;80.61;97196.28;5043143;28;20032;-77
2023/03/24 12:31:07;;;;;;;50.72;48.53;;;;;;;13.35;80.38;97203.50;5054947;28;20028;-76
2023/03/24 12:33:39;;;;;;;45.47;43.58;;;;;;;13.40;78.88;97216.97;5046718;28;20040;-76
2023/03/24 12:36:10;;;;;;;48.28;46.15;;;;;;;13.33;79.16;97215.69;5024334;28;20037;-77
2023/03/24 12:38:58;;;;;;;46.95;44.95;;;;;;;13.25;79.21;97214.44;5040763;28;20474;-76
2023/03/24 12:41:53;;;;;;;46.55;44.55;;;;;;;13.23;80.76;97232.84;5044268;28;20036;-76
2023/03/24 12:44:36;;;;;;;49.58;47.47;;;;;;;13.33;80.76;97231.91;5029118;28;20047;-76
2023/03/24 12:47:12;;;;;;;43.25;41.45;;;;;;;13.59;78.84;97228.69;5024067;28;20132;-76
2023/03/24 12:49:56;;;;;;;46.45;44.47;;;;;;;13.56;78.49;97242.78;5023168;28;20037;-76
2023/03/24 12:52:29;;;;;;;40.15;38.45;;;;;;;13.66;77.76;97221.03;5046412;28;20033;-76
2023/03/24 12:55:13;;;;;;;42.83;40.92;;;;;;;13.68;78.23;97229.66;5040634;28;20110;-76
2023/03/24 12:57:47;;;;;;;39.95;38.35;;;;;;;13.95;77.96;97228.28;5022641;28;20056;-76